sensor_id;sensor_type;location;lat;lon;timestamp;P1;durP1;ratioP1;P2;durP2;ratioP2
78209;SDS011;67485;48.816;9.930;2024-03-02T00:00:51;16.23;;;9.17;;
78209;SDS011;67485;48.816;9.930;2024-03-02T00:03:17;16.83;;;9.63;;
78209;SDS011;67485;48.816;9.930;2024-03-02T00:05:44;15.23;;;8.43;;
78209;SDS011;67485;48.816;9.930;2024-03-02T00:08:14;14.90;;;8.75;;
78209;SDS011;67485;48.816;9.930;2024-03-02T00:10:51;15.98;;;9.35;;
78209;SDS011;67485;48.816;9.930;2024-03-02T00:13:18;16.93;;;9.17;;
78209;SDS011;67485;48.816;9.930;2024-03-02T00:15:51;15.18;;;9.55;;
78209;SDS011;67485;48.816;9.930;2024-03-02T00:18:20;15.65;;;9.70;;
78209;SDS011;67485;48.816;9.930;2024-03-02T00:21:06;16.95;;;9.60;;
78209;SDS011;67485;48.816;9.930;2024-03-02T00:23:35;15.85;;;9.23;;
78209;SDS011;67485;48.816;9.930;2024-03-02T00:26:00;16.60;;;9.20;;
78209;SDS011;67485;48.816;9.930;2024-03-02T00:28:27;16.33;;;9.45;;
78209;SDS011;67485;48.816;9.930;2024-03-02T00:33:27;15.75;;;9.35;;
78209;SDS011;67485;48.816;9.930;2024-03-02T00:35:56;16.70;;;9.70;;
78209;SDS011;67485;48.816;9.930;2024-03-02T00:38:22;18.52;;;10.32;;
78209;SDS011;67485;48.816;9.930;2024-03-02T00:40:49;19.70;;;10.15;;
78209;SDS011;67485;48.816;9.930;2024-03-02T00:46:10;20.10;;;10.70;;
78209;SDS011;67485;48.816;9.930;2024-03-02T00:48:57;17.38;;;10.25;;
78209;SDS011;67485;48.816;9.930;2024-03-02T00:51:25;18.08;;;9.90;;
78209;SDS011;67485;48.816;9.930;2024-03-02T00:53:52;18.17;;;9.75;;
78209;SDS011;67485;48.816;9.930;2024-03-02T00:56:22;19.83;;;10.23;;
78209;SDS011;67485;48.816;9.930;2024-03-02T00:58:48;16.97;;;9.73;;
78209;SDS011;67485;48.816;9.930;2024-03-02T01:01:14;16.58;;;9.63;;
78209;SDS011;67485;48.816;9.930;2024-03-02T01:03:41;17.90;;;9.80;;
78209;SDS011;67485;48.816;9.930;2024-03-02T01:06:08;17.60;;;9.52;;
78209;SDS011;67485;48.816;9.930;2024-03-02T01:08:34;16.88;;;9.90;;
78209;SDS011;67485;48.816;9.930;2024-03-02T01:11:01;17.83;;;9.63;;
78209;SDS011;67485;48.816;9.930;2024-03-02T01:13:27;16.08;;;9.98;;
78209;SDS011;67485;48.816;9.930;2024-03-02T01:15:53;14.90;;;8.80;;
78209;SDS011;67485;48.816;9.930;2024-03-02T01:18:18;18.20;;;9.07;;
78209;SDS011;67485;48.816;9.930;2024-03-02T01:20:44;15.15;;;9.05;;
78209;SDS011;67485;48.816;9.930;2024-03-02T01:23:10;18.08;;;9.45;;
78209;SDS011;67485;48.816;9.930;2024-03-02T01:25:36;16.43;;;9.57;;
78209;SDS011;67485;48.816;9.930;2024-03-02T01:28:01;15.40;;;9.25;;
78209;SDS011;67485;48.816;9.930;2024-03-02T01:30:27;16.47;;;9.23;;
78209;SDS011;67485;48.816;9.930;2024-03-02T01:32:53;16.00;;;9.30;;
78209;SDS011;67485;48.816;9.930;2024-03-02T01:35:19;15.20;;;8.70;;
78209;SDS011;67485;48.816;9.930;2024-03-02T01:37:44;16.02;;;9.23;;
78209;SDS011;67485;48.816;9.930;2024-03-02T01:40:10;18.27;;;10.33;;
78209;SDS011;67485;48.816;9.930;2024-03-02T01:42:36;17.85;;;9.63;;
78209;SDS011;67485;48.816;9.930;2024-03-02T01:45:04;15.07;;;9.00;;
78209;SDS011;67485;48.816;9.930;2024-03-02T01:47:31;14.15;;;8.65;;
78209;SDS011;67485;48.816;9.930;2024-03-02T01:49:57;15.77;;;9.73;;
78209;SDS011;67485;48.816;9.930;2024-03-02T01:52:23;15.90;;;9.15;;
78209;SDS011;67485;48.816;9.930;2024-03-02T01:54:49;15.07;;;9.27;;
78209;SDS011;67485;48.816;9.930;2024-03-02T01:57:15;16.57;;;9.70;;
78209;SDS011;67485;48.816;9.930;2024-03-02T01:59:41;16.08;;;9.65;;
78209;SDS011;67485;48.816;9.930;2024-03-02T02:02:07;15.02;;;8.95;;
78209;SDS011;67485;48.816;9.930;2024-03-02T02:04:33;18.33;;;9.63;;
78209;SDS011;67485;48.816;9.930;2024-03-02T02:06:59;16.30;;;9.43;;
78209;SDS011;67485;48.816;9.930;2024-03-02T02:09:25;16.17;;;8.77;;
78209;SDS011;67485;48.816;9.930;2024-03-02T02:11:51;15.97;;;9.00;;
78209;SDS011;67485;48.816;9.930;2024-03-02T02:14:17;16.67;;;9.45;;
78209;SDS011;67485;48.816;9.930;2024-03-02T02:16:43;19.27;;;9.82;;
78209;SDS011;67485;48.816;9.930;2024-03-02T02:19:08;16.83;;;9.97;;
78209;SDS011;67485;48.816;9.930;2024-03-02T02:21:34;18.50;;;10.52;;
78209;SDS011;67485;48.816;9.930;2024-03-02T02:24:00;17.15;;;9.75;;
78209;SDS011;67485;48.816;9.930;2024-03-02T02:26:28;18.08;;;10.63;;
78209;SDS011;67485;48.816;9.930;2024-03-02T02:28:55;16.43;;;9.47;;
78209;SDS011;67485;48.816;9.930;2024-03-02T02:31:20;18.88;;;10.18;;
78209;SDS011;67485;48.816;9.930;2024-03-02T02:33:46;17.87;;;10.60;;
78209;SDS011;67485;48.816;9.930;2024-03-02T02:36:11;18.00;;;9.90;;
78209;SDS011;67485;48.816;9.930;2024-03-02T02:38:39;17.97;;;10.30;;
78209;SDS011;67485;48.816;9.930;2024-03-02T02:41:09;18.50;;;9.02;;
78209;SDS011;67485;48.816;9.930;2024-03-02T02:43:34;17.67;;;9.70;;
78209;SDS011;67485;48.816;9.930;2024-03-02T02:46:00;16.07;;;9.20;;
78209;SDS011;67485;48.816;9.930;2024-03-02T02:48:26;16.37;;;8.80;;
78209;SDS011;67485;48.816;9.930;2024-03-02T02:50:51;17.33;;;9.50;;
78209;SDS011;67485;48.816;9.930;2024-03-02T02:53:17;19.33;;;9.73;;
78209;SDS011;67485;48.816;9.930;2024-03-02T02:55:43;18.70;;;10.48;;
78209;SDS011;67485;48.816;9.930;2024-03-02T02:58:09;16.87;;;9.60;;
78209;SDS011;67485;48.816;9.930;2024-03-02T03:00:35;20.13;;;10.35;;
78209;SDS011;67485;48.816;9.930;2024-03-02T03:03:01;17.20;;;9.75;;
78209;SDS011;67485;48.816;9.930;2024-03-02T03:05:27;18.60;;;9.95;;
78209;SDS011;67485;48.816;9.930;2024-03-02T03:07:53;19.13;;;9.60;;
78209;SDS011;67485;48.816;9.930;2024-03-02T03:10:19;19.05;;;10.23;;
78209;SDS011;67485;48.816;9.930;2024-03-02T03:12:47;18.58;;;9.88;;
78209;SDS011;67485;48.816;9.930;2024-03-02T03:15:13;19.03;;;10.33;;
78209;SDS011;67485;48.816;9.930;2024-03-02T03:17:39;17.35;;;9.98;;
78209;SDS011;67485;48.816;9.930;2024-03-02T03:20:06;15.60;;;8.88;;
78209;SDS011;67485;48.816;9.930;2024-03-02T03:22:35;20.80;;;10.45;;
78209;SDS011;67485;48.816;9.930;2024-03-02T03:25:01;23.00;;;10.87;;
78209;SDS011;67485;48.816;9.930;2024-03-02T03:27:27;21.00;;;9.98;;
78209;SDS011;67485;48.816;9.930;2024-03-02T03:29:52;19.87;;;10.37;;
78209;SDS011;67485;48.816;9.930;2024-03-02T03:32:19;19.05;;;10.25;;
78209;SDS011;67485;48.816;9.930;2024-03-02T03:34:45;18.77;;;10.13;;
78209;SDS011;67485;48.816;9.930;2024-03-02T03:37:10;15.37;;;9.37;;
78209;SDS011;67485;48.816;9.930;2024-03-02T03:39:36;18.02;;;9.95;;
78209;SDS011;67485;48.816;9.930;2024-03-02T03:42:02;19.92;;;10.57;;
78209;SDS011;67485;48.816;9.930;2024-03-02T03:44:28;19.47;;;10.40;;
78209;SDS011;67485;48.816;9.930;2024-03-02T03:46:54;19.17;;;10.60;;
78209;SDS011;67485;48.816;9.930;2024-03-02T03:49:20;17.37;;;9.70;;
78209;SDS011;67485;48.816;9.930;2024-03-02T03:51:46;17.50;;;10.05;;
78209;SDS011;67485;48.816;9.930;2024-03-02T03:54:11;17.10;;;9.67;;
78209;SDS011;67485;48.816;9.930;2024-03-02T03:56:37;18.08;;;9.38;;
78209;SDS011;67485;48.816;9.930;2024-03-02T03:59:03;19.93;;;10.03;;
78209;SDS011;67485;48.816;9.930;2024-03-02T04:01:30;16.43;;;9.40;;
78209;SDS011;67485;48.816;9.930;2024-03-02T04:03:56;19.52;;;9.23;;
78209;SDS011;67485;48.816;9.930;2024-03-02T04:06:23;16.80;;;9.13;;
78209;SDS011;67485;48.816;9.930;2024-03-02T04:08:49;15.85;;;8.82;;
78209;SDS011;67485;48.816;9.930;2024-03-02T04:11:14;18.33;;;9.33;;
78209;SDS011;67485;48.816;9.930;2024-03-02T04:13:40;17.73;;;8.90;;
78209;SDS011;67485;48.816;9.930;2024-03-02T04:16:06;15.97;;;8.57;;
78209;SDS011;67485;48.816;9.930;2024-03-02T04:18:31;15.43;;;8.97;;
78209;SDS011;67485;48.816;9.930;2024-03-02T04:20:57;16.67;;;8.80;;
78209;SDS011;67485;48.816;9.930;2024-03-02T04:23:25;17.80;;;9.52;;
78209;SDS011;67485;48.816;9.930;2024-03-02T04:25:51;15.35;;;9.10;;
78209;SDS011;67485;48.816;9.930;2024-03-02T04:28:16;15.67;;;8.97;;
78209;SDS011;67485;48.816;9.930;2024-03-02T04:30:42;17.67;;;9.15;;
78209;SDS011;67485;48.816;9.930;2024-03-02T04:33:08;16.10;;;8.63;;
78209;SDS011;67485;48.816;9.930;2024-03-02T04:35:35;16.33;;;9.45;;
78209;SDS011;67485;48.816;9.930;2024-03-02T04:38:02;16.30;;;8.77;;
78209;SDS011;67485;48.816;9.930;2024-03-02T04:40:27;15.30;;;8.57;;
78209;SDS011;67485;48.816;9.930;2024-03-02T04:42:53;15.55;;;8.20;;
78209;SDS011;67485;48.816;9.930;2024-03-02T04:45:19;15.35;;;8.57;;
78209;SDS011;67485;48.816;9.930;2024-03-02T04:47:45;16.20;;;8.37;;
78209;SDS011;67485;48.816;9.930;2024-03-02T04:50:10;16.70;;;8.02;;
78209;SDS011;67485;48.816;9.930;2024-03-02T04:52:36;13.80;;;7.43;;
78209;SDS011;67485;48.816;9.930;2024-03-02T04:55:02;14.00;;;7.70;;
78209;SDS011;67485;48.816;9.930;2024-03-02T04:57:46;12.83;;;7.37;;
78209;SDS011;67485;48.816;9.930;2024-03-02T05:00:13;12.65;;;7.15;;
78209;SDS011;67485;48.816;9.930;2024-03-02T05:02:39;16.67;;;7.88;;
78209;SDS011;67485;48.816;9.930;2024-03-02T05:05:05;15.25;;;7.28;;
78209;SDS011;67485;48.816;9.930;2024-03-02T05:07:31;12.82;;;7.15;;
78209;SDS011;67485;48.816;9.930;2024-03-02T05:09:56;13.60;;;7.47;;
78209;SDS011;67485;48.816;9.930;2024-03-02T05:12:22;13.40;;;7.10;;
78209;SDS011;67485;48.816;9.930;2024-03-02T05:15:00;13.90;;;7.32;;
78209;SDS011;67485;48.816;9.930;2024-03-02T05:17:27;13.82;;;7.28;;
78209;SDS011;67485;48.816;9.930;2024-03-02T05:19:53;13.95;;;6.72;;
78209;SDS011;67485;48.816;9.930;2024-03-02T05:22:18;13.40;;;7.30;;
78209;SDS011;67485;48.816;9.930;2024-03-02T05:24:44;15.05;;;7.65;;
78209;SDS011;67485;48.816;9.930;2024-03-02T05:27:10;14.87;;;6.77;;
78209;SDS011;67485;48.816;9.930;2024-03-02T05:29:35;13.77;;;7.00;;
78209;SDS011;67485;48.816;9.930;2024-03-02T05:32:01;11.18;;;5.93;;
78209;SDS011;67485;48.816;9.930;2024-03-02T05:34:27;12.83;;;6.80;;
78209;SDS011;67485;48.816;9.930;2024-03-02T05:36:52;10.20;;;6.03;;
78209;SDS011;67485;48.816;9.930;2024-03-02T05:39:18;10.50;;;5.75;;
78209;SDS011;67485;48.816;9.930;2024-03-02T05:41:44;10.37;;;6.37;;
78209;SDS011;67485;48.816;9.930;2024-03-02T05:44:09;11.53;;;6.27;;
78209;SDS011;67485;48.816;9.930;2024-03-02T05:46:35;10.40;;;6.07;;
78209;SDS011;67485;48.816;9.930;2024-03-02T05:49:01;11.97;;;6.60;;
78209;SDS011;67485;48.816;9.930;2024-03-02T05:51:26;11.13;;;6.15;;
78209;SDS011;67485;48.816;9.930;2024-03-02T05:53:52;8.97;;;5.17;;
78209;SDS011;67485;48.816;9.930;2024-03-02T05:56:18;8.40;;;5.20;;
78209;SDS011;67485;48.816;9.930;2024-03-02T05:58:43;8.23;;;4.70;;
78209;SDS011;67485;48.816;9.930;2024-03-02T06:01:09;10.97;;;6.07;;
78209;SDS011;67485;48.816;9.930;2024-03-02T06:03:34;9.75;;;5.82;;
78209;SDS011;67485;48.816;9.930;2024-03-02T06:06:00;9.23;;;5.57;;
78209;SDS011;67485;48.816;9.930;2024-03-02T06:08:26;9.73;;;5.75;;
78209;SDS011;67485;48.816;9.930;2024-03-02T06:10:51;10.83;;;5.83;;
78209;SDS011;67485;48.816;9.930;2024-03-02T06:13:17;10.33;;;5.93;;
78209;SDS011;67485;48.816;9.930;2024-03-02T06:15:43;9.90;;;5.75;;
78209;SDS011;67485;48.816;9.930;2024-03-02T06:18:08;10.37;;;5.90;;
78209;SDS011;67485;48.816;9.930;2024-03-02T06:20:34;10.60;;;6.07;;
78209;SDS011;67485;48.816;9.930;2024-03-02T06:23:00;10.47;;;5.83;;
78209;SDS011;67485;48.816;9.930;2024-03-02T06:25:26;9.13;;;5.60;;
78209;SDS011;67485;48.816;9.930;2024-03-02T06:27:51;9.82;;;5.15;;
78209;SDS011;67485;48.816;9.930;2024-03-02T06:30:17;10.77;;;5.87;;
78209;SDS011;67485;48.816;9.930;2024-03-02T06:32:43;8.75;;;5.22;;
78209;SDS011;67485;48.816;9.930;2024-03-02T06:35:09;9.63;;;5.77;;
78209;SDS011;67485;48.816;9.930;2024-03-02T06:37:36;9.95;;;6.22;;
78209;SDS011;67485;48.816;9.930;2024-03-02T06:40:02;8.75;;;5.53;;
78209;SDS011;67485;48.816;9.930;2024-03-02T06:42:27;10.13;;;5.37;;
78209;SDS011;67485;48.816;9.930;2024-03-02T06:44:58;8.85;;;5.63;;
78209;SDS011;67485;48.816;9.930;2024-03-02T06:47:24;10.27;;;6.53;;
78209;SDS011;67485;48.816;9.930;2024-03-02T06:49:50;10.27;;;5.63;;
78209;SDS011;67485;48.816;9.930;2024-03-02T06:52:16;9.98;;;5.68;;
78209;SDS011;67485;48.816;9.930;2024-03-02T06:54:41;9.95;;;6.07;;
78209;SDS011;67485;48.816;9.930;2024-03-02T06:57:07;11.17;;;6.43;;
78209;SDS011;67485;48.816;9.930;2024-03-02T06:59:33;11.48;;;6.40;;
78209;SDS011;67485;48.816;9.930;2024-03-02T07:01:59;14.80;;;7.43;;
78209;SDS011;67485;48.816;9.930;2024-03-02T07:04:24;13.48;;;7.68;;
78209;SDS011;67485;48.816;9.930;2024-03-02T07:06:50;10.10;;;5.30;;
78209;SDS011;67485;48.816;9.930;2024-03-02T07:09:16;11.18;;;5.47;;
78209;SDS011;67485;48.816;9.930;2024-03-02T07:11:42;10.48;;;5.35;;
78209;SDS011;67485;48.816;9.930;2024-03-02T07:14:08;8.90;;;5.10;;
78209;SDS011;67485;48.816;9.930;2024-03-02T07:16:34;8.85;;;5.45;;
78209;SDS011;67485;48.816;9.930;2024-03-02T07:19:03;8.68;;;4.90;;
78209;SDS011;67485;48.816;9.930;2024-03-02T07:21:29;8.13;;;5.07;;
78209;SDS011;67485;48.816;9.930;2024-03-02T07:23:55;8.57;;;4.77;;
78209;SDS011;67485;48.816;9.930;2024-03-02T07:26:20;8.38;;;4.90;;
78209;SDS011;67485;48.816;9.930;2024-03-02T07:28:46;6.93;;;4.47;;
78209;SDS011;67485;48.816;9.930;2024-03-02T07:31:13;9.68;;;4.93;;
78209;SDS011;67485;48.816;9.930;2024-03-02T07:33:38;7.43;;;4.22;;
78209;SDS011;67485;48.816;9.930;2024-03-02T07:36:04;7.40;;;4.67;;
78209;SDS011;67485;48.816;9.930;2024-03-02T07:38:31;7.47;;;4.70;;
78209;SDS011;67485;48.816;9.930;2024-03-02T07:40:59;7.80;;;4.60;;
78209;SDS011;67485;48.816;9.930;2024-03-02T07:43:25;8.87;;;4.93;;
78209;SDS011;67485;48.816;9.930;2024-03-02T07:45:51;7.13;;;4.65;;
78209;SDS011;67485;48.816;9.930;2024-03-02T07:48:17;7.78;;;4.82;;
78209;SDS011;67485;48.816;9.930;2024-03-02T07:50:43;8.47;;;4.90;;
78209;SDS011;67485;48.816;9.930;2024-03-02T07:53:08;8.82;;;4.72;;
78209;SDS011;67485;48.816;9.930;2024-03-02T07:55:34;8.53;;;4.73;;
78209;SDS011;67485;48.816;9.930;2024-03-02T07:58:01;9.35;;;5.03;;
78209;SDS011;67485;48.816;9.930;2024-03-02T08:00:27;7.30;;;5.10;;
78209;SDS011;67485;48.816;9.930;2024-03-02T08:02:53;7.57;;;4.67;;
78209;SDS011;67485;48.816;9.930;2024-03-02T08:05:19;7.63;;;4.75;;
78209;SDS011;67485;48.816;9.930;2024-03-02T08:07:45;6.90;;;4.60;;
78209;SDS011;67485;48.816;9.930;2024-03-02T08:10:11;6.75;;;4.32;;
78209;SDS011;67485;48.816;9.930;2024-03-02T08:12:37;7.87;;;4.10;;
78209;SDS011;67485;48.816;9.930;2024-03-02T08:15:03;7.07;;;4.30;;
78209;SDS011;67485;48.816;9.930;2024-03-02T08:17:30;8.15;;;4.05;;
78209;SDS011;67485;48.816;9.930;2024-03-02T08:19:56;6.13;;;3.90;;
78209;SDS011;67485;48.816;9.930;2024-03-02T08:22:22;6.50;;;4.18;;
78209;SDS011;67485;48.816;9.930;2024-03-02T08:24:50;7.70;;;4.25;;
78209;SDS011;67485;48.816;9.930;2024-03-02T08:27:16;6.95;;;4.25;;
78209;SDS011;67485;48.816;9.930;2024-03-02T08:29:42;6.90;;;4.07;;
78209;SDS011;67485;48.816;9.930;2024-03-02T08:32:11;6.60;;;4.28;;
78209;SDS011;67485;48.816;9.930;2024-03-02T08:34:37;6.03;;;3.67;;
78209;SDS011;67485;48.816;9.930;2024-03-02T08:37:02;5.77;;;3.77;;
78209;SDS011;67485;48.816;9.930;2024-03-02T08:39:28;6.15;;;4.22;;
78209;SDS011;67485;48.816;9.930;2024-03-02T08:41:54;7.43;;;4.28;;
78209;SDS011;67485;48.816;9.930;2024-03-02T08:44:20;5.73;;;3.93;;
78209;SDS011;67485;48.816;9.930;2024-03-02T08:46:47;5.72;;;3.83;;
78209;SDS011;67485;48.816;9.930;2024-03-02T08:49:12;6.30;;;4.20;;
78209;SDS011;67485;48.816;9.930;2024-03-02T08:51:38;6.85;;;4.05;;
78209;SDS011;67485;48.816;9.930;2024-03-02T08:54:04;7.13;;;4.20;;
78209;SDS011;67485;48.816;9.930;2024-03-02T08:56:30;6.68;;;4.20;;
78209;SDS011;67485;48.816;9.930;2024-03-02T08:58:56;6.90;;;4.25;;
78209;SDS011;67485;48.816;9.930;2024-03-02T09:01:22;6.43;;;4.05;;
78209;SDS011;67485;48.816;9.930;2024-03-02T09:03:48;6.00;;;3.67;;
78209;SDS011;67485;48.816;9.930;2024-03-02T09:06:14;6.43;;;3.85;;
78209;SDS011;67485;48.816;9.930;2024-03-02T09:08:42;6.60;;;3.53;;
78209;SDS011;67485;48.816;9.930;2024-03-02T09:11:09;5.22;;;3.00;;
78209;SDS011;67485;48.816;9.930;2024-03-02T09:13:35;5.57;;;3.40;;
78209;SDS011;67485;48.816;9.930;2024-03-02T09:16:01;8.13;;;3.70;;
78209;SDS011;67485;48.816;9.930;2024-03-02T09:18:28;8.45;;;4.50;;
78209;SDS011;67485;48.816;9.930;2024-03-02T09:20:53;6.75;;;3.60;;
78209;SDS011;67485;48.816;9.930;2024-03-02T09:23:19;5.50;;;3.20;;
78209;SDS011;67485;48.816;9.930;2024-03-02T09:25:45;4.43;;;2.67;;
78209;SDS011;67485;48.816;9.930;2024-03-02T09:28:10;4.32;;;2.55;;
78209;SDS011;67485;48.816;9.930;2024-03-02T09:30:36;3.90;;;2.50;;
78209;SDS011;67485;48.816;9.930;2024-03-02T09:33:02;4.15;;;2.45;;
78209;SDS011;67485;48.816;9.930;2024-03-02T09:35:29;3.78;;;2.40;;
78209;SDS011;67485;48.816;9.930;2024-03-02T09:37:55;3.60;;;2.53;;
78209;SDS011;67485;48.816;9.930;2024-03-02T09:40:21;4.35;;;2.78;;
78209;SDS011;67485;48.816;9.930;2024-03-02T09:42:47;4.03;;;2.53;;
78209;SDS011;67485;48.816;9.930;2024-03-02T09:45:27;4.17;;;2.57;;
78209;SDS011;67485;48.816;9.930;2024-03-02T09:47:52;4.15;;;2.47;;
78209;SDS011;67485;48.816;9.930;2024-03-02T09:50:18;6.35;;;2.33;;
78209;SDS011;67485;48.816;9.930;2024-03-02T09:52:44;9.13;;;2.57;;
78209;SDS011;67485;48.816;9.930;2024-03-02T09:55:13;4.18;;;2.53;;
78209;SDS011;67485;48.816;9.930;2024-03-02T09:57:41;4.07;;;2.42;;
78209;SDS011;67485;48.816;9.930;2024-03-02T10:00:08;4.43;;;2.00;;
78209;SDS011;67485;48.816;9.930;2024-03-02T10:02:34;3.67;;;2.30;;
78209;SDS011;67485;48.816;9.930;2024-03-02T10:04:59;3.30;;;2.10;;
78209;SDS011;67485;48.816;9.930;2024-03-02T10:07:25;2.87;;;1.80;;
78209;SDS011;67485;48.816;9.930;2024-03-02T10:09:51;4.07;;;2.08;;
78209;SDS011;67485;48.816;9.930;2024-03-02T10:12:18;3.17;;;2.20;;
78209;SDS011;67485;48.816;9.930;2024-03-02T10:14:44;3.50;;;2.20;;
78209;SDS011;67485;48.816;9.930;2024-03-02T10:17:11;6.50;;;2.00;;
78209;SDS011;67485;48.816;9.930;2024-03-02T10:19:38;3.20;;;1.90;;
78209;SDS011;67485;48.816;9.930;2024-03-02T10:22:05;3.05;;;1.45;;
78209;SDS011;67485;48.816;9.930;2024-03-02T10:24:36;3.33;;;2.15;;
78209;SDS011;67485;48.816;9.930;2024-03-02T10:27:06;2.70;;;1.67;;
78209;SDS011;67485;48.816;9.930;2024-03-02T10:29:39;2.25;;;1.20;;
78209;SDS011;67485;48.816;9.930;2024-03-02T10:32:07;2.35;;;1.10;;
78209;SDS011;67485;48.816;9.930;2024-03-02T10:34:35;1.92;;;1.42;;
78209;SDS011;67485;48.816;9.930;2024-03-02T10:37:01;4.30;;;1.38;;
78209;SDS011;67485;48.816;9.930;2024-03-02T10:39:27;2.30;;;1.27;;
78209;SDS011;67485;48.816;9.930;2024-03-02T10:41:56;3.33;;;1.40;;
78209;SDS011;67485;48.816;9.930;2024-03-02T10:44:23;1.75;;;1.00;;
78209;SDS011;67485;48.816;9.930;2024-03-02T10:46:51;2.20;;;1.25;;
78209;SDS011;67485;48.816;9.930;2024-03-02T10:49:19;2.45;;;1.42;;
78209;SDS011;67485;48.816;9.930;2024-03-02T10:51:47;2.50;;;1.40;;
78209;SDS011;67485;48.816;9.930;2024-03-02T10:54:13;2.75;;;1.50;;
78209;SDS011;67485;48.816;9.930;2024-03-02T10:56:39;2.10;;;1.27;;
78209;SDS011;67485;48.816;9.930;2024-03-02T11:01:41;2.67;;;1.55;;
78209;SDS011;67485;48.816;9.930;2024-03-02T11:04:08;6.95;;;2.90;;
78209;SDS011;67485;48.816;9.930;2024-03-02T11:06:38;6.40;;;2.75;;
78209;SDS011;67485;48.816;9.930;2024-03-02T11:09:09;5.57;;;2.50;;
78209;SDS011;67485;48.816;9.930;2024-03-02T11:11:36;3.10;;;1.40;;
78209;SDS011;67485;48.816;9.930;2024-03-02T11:14:06;1.80;;;1.05;;
78209;SDS011;67485;48.816;9.930;2024-03-02T11:16:37;2.05;;;1.20;;
78209;SDS011;67485;48.816;9.930;2024-03-02T11:19:05;2.50;;;1.55;;
78209;SDS011;67485;48.816;9.930;2024-03-02T11:21:35;2.72;;;1.70;;
78209;SDS011;67485;48.816;9.930;2024-03-02T11:26:46;2.45;;;1.20;;
78209;SDS011;67485;48.816;9.930;2024-03-02T11:32:06;2.42;;;1.20;;
78209;SDS011;67485;48.816;9.930;2024-03-02T11:34:43;1.73;;;1.02;;
78209;SDS011;67485;48.816;9.930;2024-03-02T11:37:11;2.50;;;1.33;;
78209;SDS011;67485;48.816;9.930;2024-03-02T11:39:39;2.90;;;1.48;;
78209;SDS011;67485;48.816;9.930;2024-03-02T11:42:08;2.40;;;1.38;;
78209;SDS011;67485;48.816;9.930;2024-03-02T11:44:35;2.65;;;1.40;;
78209;SDS011;67485;48.816;9.930;2024-03-02T11:47:05;2.33;;;1.42;;
78209;SDS011;67485;48.816;9.930;2024-03-02T11:52:11;2.08;;;1.20;;
78209;SDS011;67485;48.816;9.930;2024-03-02T11:54:39;3.17;;;1.20;;
78209;SDS011;67485;48.816;9.930;2024-03-02T11:57:06;3.35;;;1.30;;
78209;SDS011;67485;48.816;9.930;2024-03-02T11:59:32;1.95;;;1.45;;
78209;SDS011;67485;48.816;9.930;2024-03-02T12:01:58;2.63;;;1.43;;
78209;SDS011;67485;48.816;9.930;2024-03-02T12:04:25;2.28;;;1.20;;
78209;SDS011;67485;48.816;9.930;2024-03-02T12:06:55;2.85;;;1.48;;
78209;SDS011;67485;48.816;9.930;2024-03-02T12:09:25;1.98;;;1.25;;
78209;SDS011;67485;48.816;9.930;2024-03-02T12:12:03;3.53;;;1.80;;
78209;SDS011;67485;48.816;9.930;2024-03-02T12:14:33;2.15;;;1.33;;
78209;SDS011;67485;48.816;9.930;2024-03-02T12:17:00;2.83;;;1.50;;
78209;SDS011;67485;48.816;9.930;2024-03-02T12:19:26;3.85;;;2.78;;
78209;SDS011;67485;48.816;9.930;2024-03-02T12:21:55;2.60;;;1.70;;
78209;SDS011;67485;48.816;9.930;2024-03-02T12:24:22;3.17;;;1.20;;
78209;SDS011;67485;48.816;9.930;2024-03-02T12:26:51;2.97;;;1.90;;
78209;SDS011;67485;48.816;9.930;2024-03-02T12:29:20;2.90;;;1.55;;
78209;SDS011;67485;48.816;9.930;2024-03-02T12:31:47;3.45;;;1.00;;
78209;SDS011;67485;48.816;9.930;2024-03-02T12:34:23;2.13;;;1.30;;
78209;SDS011;67485;48.816;9.930;2024-03-02T12:36:49;4.25;;;1.75;;
78209;SDS011;67485;48.816;9.930;2024-03-02T12:39:19;1.75;;;1.25;;
78209;SDS011;67485;48.816;9.930;2024-03-02T12:41:48;2.30;;;1.42;;
78209;SDS011;67485;48.816;9.930;2024-03-02T12:44:19;2.53;;;0.80;;
78209;SDS011;67485;48.816;9.930;2024-03-02T12:46:46;1.93;;;1.10;;
78209;SDS011;67485;48.816;9.930;2024-03-02T12:49:13;1.83;;;1.00;;
78209;SDS011;67485;48.816;9.930;2024-03-02T12:51:43;2.22;;;1.30;;
78209;SDS011;67485;48.816;9.930;2024-03-02T12:54:11;1.73;;;0.80;;
78209;SDS011;67485;48.816;9.930;2024-03-02T12:56:37;2.53;;;1.13;;
78209;SDS011;67485;48.816;9.930;2024-03-02T12:59:03;2.65;;;0.90;;
78209;SDS011;67485;48.816;9.930;2024-03-02T13:01:29;1.65;;;0.98;;
78209;SDS011;67485;48.816;9.930;2024-03-02T13:03:57;1.80;;;1.00;;
78209;SDS011;67485;48.816;9.930;2024-03-02T13:06:23;1.93;;;1.03;;
78209;SDS011;67485;48.816;9.930;2024-03-02T13:08:53;2.38;;;1.20;;
78209;SDS011;67485;48.816;9.930;2024-03-02T13:11:19;2.58;;;1.50;;
78209;SDS011;67485;48.816;9.930;2024-03-02T13:13:46;2.42;;;1.30;;
78209;SDS011;67485;48.816;9.930;2024-03-02T13:16:12;2.20;;;1.40;;
78209;SDS011;67485;48.816;9.930;2024-03-02T13:18:39;2.20;;;1.67;;
78209;SDS011;67485;48.816;9.930;2024-03-02T13:21:08;3.25;;;1.33;;
78209;SDS011;67485;48.816;9.930;2024-03-02T13:23:34;2.00;;;1.17;;
78209;SDS011;67485;48.816;9.930;2024-03-02T13:25:59;2.27;;;1.07;;
78209;SDS011;67485;48.816;9.930;2024-03-02T13:28:26;2.20;;;1.25;;
78209;SDS011;67485;48.816;9.930;2024-03-02T13:30:52;3.67;;;1.10;;
78209;SDS011;67485;48.816;9.930;2024-03-02T13:33:17;2.97;;;1.20;;
78209;SDS011;67485;48.816;9.930;2024-03-02T13:35:50;1.45;;;0.90;;
78209;SDS011;67485;48.816;9.930;2024-03-02T13:38:19;1.25;;;0.80;;
78209;SDS011;67485;48.816;9.930;2024-03-02T13:40:45;1.50;;;0.70;;
78209;SDS011;67485;48.816;9.930;2024-03-02T13:43:11;1.33;;;0.80;;
78209;SDS011;67485;48.816;9.930;2024-03-02T13:45:40;1.77;;;0.90;;
78209;SDS011;67485;48.816;9.930;2024-03-02T13:48:06;2.72;;;1.20;;
78209;SDS011;67485;48.816;9.930;2024-03-02T13:50:32;1.90;;;1.10;;
78209;SDS011;67485;48.816;9.930;2024-03-02T13:52:58;3.10;;;1.20;;
78209;SDS011;67485;48.816;9.930;2024-03-02T13:55:24;1.92;;;1.10;;
78209;SDS011;67485;48.816;9.930;2024-03-02T13:57:49;1.88;;;1.10;;
78209;SDS011;67485;48.816;9.930;2024-03-02T14:00:16;2.47;;;1.30;;
78209;SDS011;67485;48.816;9.930;2024-03-02T14:02:43;2.33;;;1.15;;
78209;SDS011;67485;48.816;9.930;2024-03-02T14:05:09;4.00;;;1.50;;
78209;SDS011;67485;48.816;9.930;2024-03-02T14:07:39;5.45;;;1.77;;
78209;SDS011;67485;48.816;9.930;2024-03-02T14:10:04;3.57;;;1.97;;
78209;SDS011;67485;48.816;9.930;2024-03-02T14:12:30;2.58;;;1.67;;
78209;SDS011;67485;48.816;9.930;2024-03-02T14:14:56;2.40;;;1.50;;
78209;SDS011;67485;48.816;9.930;2024-03-02T14:17:29;4.43;;;1.42;;
78209;SDS011;67485;48.816;9.930;2024-03-02T14:19:57;3.00;;;1.53;;
78209;SDS011;67485;48.816;9.930;2024-03-02T14:22:24;4.43;;;1.90;;
78209;SDS011;67485;48.816;9.930;2024-03-02T14:24:50;3.20;;;2.10;;
78209;SDS011;67485;48.816;9.930;2024-03-02T14:27:16;3.15;;;2.13;;
78209;SDS011;67485;48.816;9.930;2024-03-02T14:29:42;3.97;;;2.00;;
78209;SDS011;67485;48.816;9.930;2024-03-02T14:32:08;3.08;;;2.05;;
78209;SDS011;67485;48.816;9.930;2024-03-02T14:34:34;2.50;;;1.80;;
78209;SDS011;67485;48.816;9.930;2024-03-02T14:37:00;2.88;;;1.80;;
78209;SDS011;67485;48.816;9.930;2024-03-02T14:39:26;3.08;;;1.65;;
78209;SDS011;67485;48.816;9.930;2024-03-02T14:41:52;3.00;;;1.40;;
78209;SDS011;67485;48.816;9.930;2024-03-02T14:44:17;3.25;;;1.70;;
78209;SDS011;67485;48.816;9.930;2024-03-02T14:46:43;3.57;;;1.70;;
78209;SDS011;67485;48.816;9.930;2024-03-02T14:49:12;3.30;;;1.80;;
78209;SDS011;67485;48.816;9.930;2024-03-02T14:51:38;2.80;;;1.77;;
78209;SDS011;67485;48.816;9.930;2024-03-02T14:54:04;2.58;;;1.77;;